Time;durP1;ratioP1;P1;durP2;ratioP2;P2;SDS_P1;SDS_P2;PMS_P1;PMS_P2;Temp;Humidity;BMP_temperature;BMP_pressure;BME280_temperature;BME280_humidity;BME280_pressure;Samples;Min_cycle;Max_cycle;Signal;HPM_P1;HPM_P2
2024/01/04 00:01:32;;;;;;;2.77;0.60;;;6.30;87.60;;;;;;5094137;28;20424;-78
2024/01/04 00:03:57;;;;;;;2.17;0.17;;;6.30;86.60;;;;;;5105102;28;20474;-78
2024/01/04 00:06:23;;;;;;;2.83;0.10;;;6.30;85.60;;;;;;5104526;28;20421;-79
2024/01/04 00:08:48;;;;;;;2.08;0.20;;;6.30;83.30;;;;;;5104106;28;20487;-78
2024/01/04 00:11:14;;;;;;;3.20;0.20;;;6.20;80.20;;;;;;5103554;28;20419;-79
2024/01/04 00:13:40;;;;;;;1.03;0.10;;;6.20;78.30;;;;;;5104626;28;21160;-79
2024/01/04 00:16:10;;;;;;;3.42;0.40;;;6.20;78.80;;;;;;5103003;28;20396;-79
2024/01/04 00:18:36;;;;;;;2.95;0.65;;;6.20;80.40;;;;;;5104368;28;20487;-79
2024/01/04 00:21:02;;;;;;;3.53;0.50;;;6.20;78.60;;;;;;5080330;28;20510;-79
2024/01/04 00:23:28;;;;;;;3.28;0.38;;;6.20;79.10;;;;;;5098006;28;20437;-78
2024/01/04 00:25:54;;;;;;;3.33;0.50;;;6.20;80.50;;;;;;5095267;28;20401;-79
2024/01/04 00:28:19;;;;;;;4.00;0.70;;;6.20;80.80;;;;;;5105625;28;21156;-79
2024/01/04 00:30:45;;;;;;;4.07;0.30;;;6.10;80.70;;;;;;5104160;28;20407;-78
2024/01/04 00:33:11;;;;;;;2.77;0.30;;;6.20;79.70;;;;;;5104793;28;20944;-79
2024/01/04 00:35:36;;;;;;;3.03;0.20;;;6.10;77.60;;;;;;5105344;28;20392;-78
2024/01/04 00:38:02;;;;;;;3.13;0.30;;;6.10;79.60;;;;;;5106002;28;20392;-78
2024/01/04 00:40:32;;;;;;;4.75;0.68;;;6.10;74.60;;;;;;5094261;28;20471;-78
2024/01/04 00:42:58;;;;;;;2.15;0.10;;;6.10;74.40;;;;;;5103260;28;20428;-78
2024/01/04 00:45:23;;;;;;;2.95;0.30;;;6.10;69.20;;;;;;5105202;28;20392;-79
2024/01/04 00:47:49;;;;;;;1.77;0.27;;;6.10;64.30;;;;;;5104957;28;20450;-78
2024/01/04 00:50:15;;;;;;;2.97;0.60;;;6.10;66.20;;;;;;5090272;28;20398;-79
2024/01/04 00:52:40;;;;;;;4.22;0.30;;;6.10;65.20;;;;;;5097037;28;20491;-78
2024/01/04 00:55:08;;;;;;;3.80;0.50;;;6.10;63.20;;;;;;5102364;28;20491;-78
2024/01/04 00:57:33;;;;;;;1.92;0.20;;;6.00;64.10;;;;;;5103294;28;20876;-79
2024/01/04 00:59:59;;;;;;;2.72;0.20;;;6.00;63.70;;;;;;5102331;28;20417;-78
2024/01/04 01:02:25;;;;;;;1.03;0.20;;;6.00;63.30;;;;;;5101889;28;20930;-79
2024/01/04 01:04:50;;;;;;;1.47;0.30;;;6.00;66.70;;;;;;5102094;28;20470;-78
2024/01/04 01:07:16;;;;;;;2.40;0.20;;;6.00;64.60;;;;;;5101152;28;20411;-78
2024/01/04 01:09:41;;;;;;;2.93;0.30;;;6.00;65.30;;;;;;5101256;28;20897;-78
2024/01/04 01:12:07;;;;;;;2.47;0.25;;;6.00;66.70;;;;;;5102358;28;20767;-77
2024/01/04 01:14:33;;;;;;;5.15;0.60;;;6.00;67.60;;;;;;5101183;28;20469;-78
2024/01/04 01:16:58;;;;;;;4.10;0.50;;;6.00;68.30;;;;;;5102180;28;20415;-78
2024/01/04 01:19:24;;;;;;;3.60;0.33;;;5.90;68.60;;;;;;5101261;28;20423;-78
2024/01/04 01:21:50;;;;;;;2.92;0.20;;;5.90;69.80;;;;;;5102184;28;20497;-78
2024/01/04 01:24:15;;;;;;;1.83;0.40;;;5.90;70.20;;;;;;5097551;28;20405;-78
2024/01/04 01:26:43;;;;;;;1.42;0.20;;;5.90;71.00;;;;;;5098900;28;20438;-77
2024/01/04 01:29:09;;;;;;;2.08;0.30;;;5.80;70.40;;;;;;5105069;28;20472;-78
2024/01/04 01:31:42;;;;;;;2.53;0.28;;;5.80;69.60;;;;;;5105320;28;20824;-78
2024/01/04 01:34:08;;;;;;;1.85;0.10;;;5.80;69.10;;;;;;5094293;28;20396;-78
2024/01/04 01:36:34;;;;;;;1.30;0.10;;;5.70;65.80;;;;;;5104459;27;20399;-78
2024/01/04 01:39:00;;;;;;;3.33;0.30;;;5.70;70.20;;;;;;5104276;28;20388;-78
2024/01/04 01:41:26;;;;;;;3.20;0.40;;;5.70;70.90;;;;;;5104240;28;20424;-78
2024/01/04 01:43:51;;;;;;;3.87;0.20;;;5.60;70.70;;;;;;5104829;28;20395;-78
2024/01/04 01:46:17;;;;;;;1.45;0.10;;;5.60;73.30;;;;;;5104735;28;20479;-78
2024/01/04 01:48:43;;;;;;;2.97;0.40;;;5.60;72.30;;;;;;5100129;28;20402;-78
2024/01/04 01:51:10;;;;;;;1.95;0.30;;;5.50;72.50;;;;;;5099053;28;20424;-78
2024/01/04 01:53:36;;;;;;;3.58;0.30;;;5.40;73.40;;;;;;5099614;28;20398;-78
2024/01/04 01:56:03;;;;;;;3.38;0.40;;;5.40;76.60;;;;;;5087049;28;20398;-78
2024/01/04 01:58:29;;;;;;;1.98;0.30;;;5.40;78.30;;;;;;5105060;28;20408;-77
2024/01/04 02:00:55;;;;;;;4.78;0.47;;;5.30;79.30;;;;;;5104538;28;20533;-77
2024/01/04 02:03:21;;;;;;;2.17;0.28;;;5.30;80.10;;;;;;5105759;28;20957;-78
2024/01/04 02:05:47;;;;;;;1.00;0.13;;;5.20;80.50;;;;;;5103636;28;20424;-78
2024/01/04 02:08:13;;;;;;;1.97;0.30;;;5.20;81.30;;;;;;5103988;28;20483;-78
2024/01/04 02:10:39;;;;;;;1.75;0.40;;;5.20;82.20;;;;;;5101277;28;20886;-78
2024/01/04 02:13:05;;;;;;;2.63;0.30;;;5.30;82.60;;;;;;5104665;28;20388;-78
2024/01/04 02:15:31;;;;;;;3.85;0.50;;;5.20;83.10;;;;;;5103169;28;20408;-78
2024/01/04 02:17:57;;;;;;;2.10;0.20;;;5.20;83.50;;;;;;5093397;28;20396;-78
2024/01/04 02:20:22;;;;;;;2.50;0.28;;;5.20;84.20;;;;;;5103438;28;20399;-78
2024/01/04 02:22:51;;;;;;;2.30;0.40;;;5.20;84.40;;;;;;5104558;28;20428;-78
2024/01/04 02:25:17;;;;;;;1.90;0.22;;;5.30;85.50;;;;;;5092108;28;20402;-78
2024/01/04 02:27:43;;;;;;;4.03;0.30;;;5.30;85.70;;;;;;5106514;28;20407;-78
2024/01/04 02:30:11;;;;;;;1.25;0.10;;;5.20;85.70;;;;;;5092170;28;20410;-79
2024/01/04 02:32:37;;;;;;;3.15;0.40;;;5.20;85.60;;;;;;5105477;28;20902;-79
2024/01/04 02:35:03;;;;;;;3.35;0.30;;;5.20;85.00;;;;;;5102363;28;20451;-79
2024/01/04 02:37:29;;;;;;;2.83;0.40;;;5.20;86.00;;;;;;5095764;28;20408;-79
2024/01/04 02:39:54;;;;;;;2.47;0.40;;;5.20;86.60;;;;;;5102983;28;20518;-79
2024/01/04 02:42:20;;;;;;;3.00;0.40;;;5.10;86.90;;;;;;5103716;28;20427;-79
2024/01/04 02:44:46;;;;;;;1.90;0.20;;;5.10;86.90;;;;;;5102525;28;20410;-79
2024/01/04 02:47:11;;;;;;;1.63;0.28;;;5.10;86.90;;;;;;5079389;28;20398;-79
2024/01/04 02:49:38;;;;;;;1.83;0.15;;;5.00;86.90;;;;;;5098783;28;20414;-79
2024/01/04 02:52:04;;;;;;;4.90;0.40;;;5.00;87.30;;;;;;5098437;28;20411;-79
2024/01/04 02:54:30;;;;;;;3.05;0.50;;;5.00;87.90;;;;;;5104517;28;20440;-79
2024/01/04 02:56:56;;;;;;;3.10;0.37;;;5.10;89.00;;;;;;5109501;28;20424;-78
2024/01/04 02:59:21;;;;;;;5.37;0.40;;;5.10;89.70;;;;;;5105024;28;20418;-79
2024/01/04 03:01:48;;;;;;;2.53;0.30;;;5.10;90.00;;;;;;5107297;28;20464;-79
2024/01/04 03:04:15;;;;;;;1.90;0.30;;;5.10;89.50;;;;;;5102296;28;20950;-79
2024/01/04 03:06:40;;;;;;;2.65;0.30;;;5.10;88.60;;;;;;5086331;28;20404;-79
2024/01/04 03:09:06;;;;;;;4.97;0.50;;;5.10;88.10;;;;;;5092588;28;20930;-79
2024/01/04 03:11:32;;;;;;;2.42;0.40;;;5.00;87.70;;;;;;5105139;28;20399;-79
2024/01/04 03:13:57;;;;;;;2.43;0.20;;;5.00;87.40;;;;;;5103201;28;20670;-79
2024/01/04 03:16:23;;;;;;;3.58;0.30;;;5.00;87.40;;;;;;5105194;28;20407;-79
2024/01/04 03:18:48;;;;;;;3.33;0.55;;;4.90;87.30;;;;;;5102594;28;20474;-80
2024/01/04 03:21:15;;;;;;;2.50;0.30;;;4.90;87.70;;;;;;5104497;28;20420;-79
2024/01/04 03:23:40;;;;;;;2.22;0.20;;;4.90;88.50;;;;;;5100403;28;21163;-79
2024/01/04 03:26:06;;;;;;;2.63;0.30;;;4.90;90.00;;;;;;5098398;28;20401;-79
2024/01/04 03:28:32;;;;;;;1.63;0.32;;;4.90;90.30;;;;;;5106680;28;20765;-79
2024/01/04 03:30:57;;;;;;;2.73;0.40;;;4.90;90.30;;;;;;5108549;28;20414;-79
2024/01/04 03:33:23;;;;;;;3.90;0.20;;;4.90;90.40;;;;;;5089958;28;20404;-79
2024/01/04 03:35:48;;;;;;;2.00;0.38;;;4.90;90.40;;;;;;5108982;28;20404;-79
2024/01/04 03:38:14;;;;;;;2.20;0.20;;;4.90;90.30;;;;;;5094203;28;20409;-79
2024/01/04 03:40:40;;;;;;;4.03;0.40;;;4.90;89.70;;;;;;5107821;28;20483;-79
2024/01/04 03:43:05;;;;;;;2.80;0.40;;;4.90;87.20;;;;;;5104525;28;20449;-79
2024/01/04 03:45:31;;;;;;;3.43;0.50;;;4.90;86.00;;;;;;5089683;28;20843;-79
2024/01/04 03:47:58;;;;;;;3.20;0.30;;;4.90;85.00;;;;;;5067906;28;20418;-79
2024/01/04 03:50:23;;;;;;;3.17;0.40;;;4.90;84.50;;;;;;5088926;28;20398;-79
2024/01/04 03:52:49;;;;;;;3.25;0.47;;;4.90;84.10;;;;;;5094789;28;21076;-79
2024/01/04 03:55:15;;;;;;;1.43;0.20;;;4.80;82.80;;;;;;5099044;28;20427;-79
2024/01/04 03:57:43;;;;;;;3.05;0.38;;;4.80;81.60;;;;;;5092535;28;20901;-79
2024/01/04 04:00:09;;;;;;;2.17;0.40;;;4.80;82.10;;;;;;5079603;28;20414;-79
2024/01/04 04:02:35;;;;;;;2.22;0.55;;;4.80;81.70;;;;;;5092903;28;20507;-79
2024/01/04 04:05:01;;;;;;;4.37;0.70;;;4.70;81.20;;;;;;5086781;28;20536;-79
2024/01/04 04:07:26;;;;;;;3.13;0.40;;;4.70;81.30;;;;;;5093381;28;21380;-79
2024/01/04 04:09:52;;;;;;;3.05;0.40;;;4.70;81.60;;;;;;5094081;28;20457;-79
2024/01/04 04:12:17;;;;;;;2.50;0.40;;;4.70;82.90;;;;;;5091964;28;20404;-79
2024/01/04 04:14:43;;;;;;;3.75;0.40;;;4.70;83.60;;;;;;5093577;28;21449;-79
2024/01/04 04:17:09;;;;;;;4.10;0.30;;;4.70;84.90;;;;;;5093083;28;20451;-79
2024/01/04 04:19:34;;;;;;;3.10;0.40;;;4.70;85.50;;;;;;5090735;28;20397;-78
2024/01/04 04:22:00;;;;;;;2.95;0.30;;;4.70;85.90;;;;;;5096693;28;20429;-79
2024/01/04 04:24:26;;;;;;;2.75;0.40;;;4.70;86.10;;;;;;5092320;28;20425;-79
2024/01/04 04:26:51;;;;;;;2.47;0.33;;;4.70;86.30;;;;;;5092213;28;20413;-79
2024/01/04 04:29:17;;;;;;;2.63;0.20;;;4.70;86.70;;;;;;5089472;28;20772;-78
2024/01/04 04:31:43;;;;;;;2.13;0.10;;;4.70;87.10;;;;;;5094784;28;20405;-79
2024/01/04 04:34:08;;;;;;;2.00;0.30;;;4.60;87.50;;;;;;5092362;28;20398;-79
2024/01/04 04:36:34;;;;;;;2.70;0.20;;;4.60;88.00;;;;;;5094443;28;20394;-79
2024/01/04 04:39:02;;;;;;;2.63;0.30;;;4.60;88.40;;;;;;5091557;28;20821;-80
2024/01/04 04:41:28;;;;;;;2.58;0.40;;;4.60;88.50;;;;;;5092011;28;20436;-79
2024/01/04 04:43:54;;;;;;;2.40;0.30;;;4.50;89.70;;;;;;5092123;28;20394;-79
2024/01/04 04:46:20;;;;;;;2.40;0.20;;;4.50;90.50;;;;;;5070751;28;21005;-79
2024/01/04 04:48:46;;;;;;;2.80;0.50;;;4.50;90.50;;;;;;5092407;28;20474;-79
2024/01/04 04:51:11;;;;;;;2.60;0.40;;;4.50;90.60;;;;;;5093177;28;20481;-79
2024/01/04 04:53:37;;;;;;;2.10;0.40;;;4.50;90.70;;;;;;5103130;28;20841;-79
2024/01/04 04:56:04;;;;;;;2.92;0.40;;;4.50;90.90;;;;;;5080611;28;20406;-79
2024/01/04 04:58:29;;;;;;;2.95;0.30;;;4.50;91.20;;;;;;5091737;28;20398;-79
2024/01/04 05:00:55;;;;;;;3.20;0.60;;;4.50;91.50;;;;;;5092943;28;20421;-79
2024/01/04 05:03:22;;;;;;;2.63;0.20;;;4.50;91.30;;;;;;5091504;28;20771;-79
2024/01/04 05:05:48;;;;;;;2.55;0.30;;;4.60;91.50;;;;;;5093039;28;20408;-79
2024/01/04 05:08:14;;;;;;;3.15;0.68;;;4.50;91.50;;;;;;5091243;28;20481;-79
2024/01/04 05:10:39;;;;;;;1.50;0.30;;;4.60;91.50;;;;;;5093011;28;20405;-79
2024/01/04 05:13:05;;;;;;;2.40;0.30;;;4.60;91.40;;;;;;5091052;28;20398;-79
2024/01/04 05:15:31;;;;;;;1.52;0.40;;;4.60;91.00;;;;;;5087306;28;20402;-79
2024/01/04 05:17:56;;;;;;;2.97;0.38;;;4.50;90.60;;;;;;5091532;28;20394;-79
2024/01/04 05:20:22;;;;;;;1.83;0.27;;;4.50;90.10;;;;;;5090746;28;20919;-80
2024/01/04 05:22:48;;;;;;;1.23;0.20;;;4.50;90.00;;;;;;5091051;28;20473;-79
2024/01/04 05:25:14;;;;;;;3.65;0.30;;;4.40;90.10;;;;;;5093306;28;20756;-79
2024/01/04 05:27:40;;;;;;;1.70;0.25;;;4.40;90.00;;;;;;5091787;28;20406;-79
2024/01/04 05:30:07;;;;;;;2.85;0.15;;;4.40;90.10;;;;;;5090543;28;20398;-79
2024/01/04 05:32:34;;;;;;;2.22;0.40;;;4.30;90.10;;;;;;5072515;28;21012;-79
2024/01/04 05:35:00;;;;;;;2.72;0.20;;;4.30;90.10;;;;;;5091017;28;20402;-79
2024/01/04 05:37:25;;;;;;;3.72;0.50;;;4.20;90.10;;;;;;5089812;28;20404;-79
2024/01/04 05:39:51;;;;;;;1.35;0.20;;;4.30;90.20;;;;;;5071255;28;20405;-79
2024/01/04 05:42:16;;;;;;;3.13;0.27;;;4.20;90.10;;;;;;5089723;28;20425;-79
2024/01/04 05:44:42;;;;;;;2.63;0.20;;;4.20;90.10;;;;;;5091573;28;20401;-79
2024/01/04 05:47:08;;;;;;;1.42;0.20;;;4.20;90.10;;;;;;5088861;28;20406;-79
2024/01/04 05:49:33;;;;;;;3.17;0.30;;;4.30;90.20;;;;;;5089554;28;20473;-79
2024/01/04 05:51:59;;;;;;;2.22;0.55;;;4.30;90.10;;;;;;5071378;28;20455;-79
2024/01/04 05:54:25;;;;;;;1.70;0.30;;;4.30;89.60;;;;;;5090258;28;20436;-79
2024/01/04 05:56:50;;;;;;;4.17;0.40;;;4.20;89.40;;;;;;5086862;28;21047;-79
2024/01/04 05:59:16;;;;;;;2.08;0.30;;;4.30;89.30;;;;;;5072128;28;20414;-78
2024/01/04 06:01:41;;;;;;;2.30;0.20;;;4.30;89.20;;;;;;5090401;28;20469;-79
2024/01/04 06:04:07;;;;;;;3.92;0.30;;;4.20;89.00;;;;;;5090854;28;20409;-79
2024/01/04 06:06:33;;;;;;;2.83;0.30;;;4.20;88.60;;;;;;5088090;28;20410;-79
2024/01/04 06:08:58;;;;;;;2.97;0.20;;;4.20;88.70;;;;;;5073757;28;20406;-79
2024/01/04 06:11:24;;;;;;;3.33;0.28;;;4.20;88.80;;;;;;5088568;28;20416;-79
2024/01/04 06:13:50;;;;;;;1.50;0.20;;;4.10;89.00;;;;;;5089810;28;20409;-79
2024/01/04 06:16:17;;;;;;;2.30;0.30;;;4.10;88.90;;;;;;5088043;28;20413;-79
2024/01/04 06:18:43;;;;;;;2.63;0.40;;;4.00;88.90;;;;;;5090061;28;20410;-79
2024/01/04 06:21:09;;;;;;;4.20;0.30;;;4.00;89.10;;;;;;5089884;28;20425;-79
2024/01/04 06:23:34;;;;;;;1.10;0.10;;;4.00;89.10;;;;;;5089882;28;20398;-79
2024/01/04 06:26:00;;;;;;;2.17;0.30;;;4.00;89.10;;;;;;5088125;28;20438;-80
2024/01/04 06:28:25;;;;;;;3.03;0.30;;;4.00;89.60;;;;;;5090989;28;20441;-80
2024/01/04 06:30:51;;;;;;;3.33;0.30;;;4.00;89.30;;;;;;5069628;28;20425;-80
2024/01/04 06:33:17;;;;;;;1.87;0.20;;;4.00;88.80;;;;;;5087015;28;20530;-79
2024/01/04 06:35:43;;;;;;;2.50;0.30;;;4.00;88.20;;;;;;5086725;28;20477;-79
2024/01/04 06:38:09;;;;;;;3.72;0.30;;;4.00;88.30;;;;;;5089304;28;20421;-79
2024/01/04 06:40:38;;;;;;;2.90;0.35;;;4.00;88.30;;;;;;5087029;28;20497;-79
2024/01/04 06:43:08;;;;;;;3.45;0.30;;;4.00;88.10;;;;;;5089271;28;20438;-79
2024/01/04 06:45:37;;;;;;;3.53;0.40;;;3.90;88.00;;;;;;5087727;28;21130;-79
2024/01/04 06:48:04;;;;;;;2.83;0.30;;;3.90;88.20;;;;;;5089491;28;20910;-79
2024/01/04 06:50:30;;;;;;;2.20;0.20;;;3.90;88.30;;;;;;5087397;28;20756;-79
2024/01/04 06:52:56;;;;;;;3.80;0.30;;;3.90;88.10;;;;;;5088689;28;20386;-78
2024/01/04 06:55:23;;;;;;;3.97;0.60;;;3.80;87.90;;;;;;5087812;28;20402;-79
2024/01/04 06:57:48;;;;;;;2.05;0.32;;;3.80;87.80;;;;;;5090132;28;20796;-78
2024/01/04 07:00:15;;;;;;;4.05;0.40;;;3.80;88.00;;;;;;5088263;28;20409;-79
2024/01/04 07:02:41;;;;;;;3.60;0.50;;;3.80;88.50;;;;;;5091860;28;20469;-79
2024/01/04 07:05:09;;;;;;;3.78;0.50;;;3.70;88.80;;;;;;5089816;28;20414;-79
2024/01/04 07:07:36;;;;;;;2.47;0.40;;;3.70;89.00;;;;;;5088626;28;20398;-79
2024/01/04 07:10:02;;;;;;;3.55;0.65;;;3.70;89.30;;;;;;5091405;28;20447;-79
2024/01/04 07:12:28;;;;;;;4.07;0.53;;;3.70;89.50;;;;;;5091095;28;20426;-78
2024/01/04 07:14:54;;;;;;;1.98;0.38;;;3.60;89.70;;;;;;5091425;28;21473;-78
2024/01/04 07:17:22;;;;;;;2.78;0.30;;;3.60;90.00;;;;;;5089954;28;20485;-78
2024/01/04 07:19:47;;;;;;;3.75;0.52;;;3.50;90.20;;;;;;5090632;28;20953;-77
2024/01/04 07:22:15;;;;;;;2.05;0.30;;;3.50;90.40;;;;;;5090989;28;20425;-78
2024/01/04 07:24:41;;;;;;;2.22;0.38;;;3.40;90.40;;;;;;5089084;28;20417;-78
2024/01/04 07:27:09;;;;;;;4.50;0.30;;;3.40;90.50;;;;;;5089550;28;20402;-77
2024/01/04 07:29:34;;;;;;;3.13;0.30;;;3.40;90.70;;;;;;5089523;28;20447;-78
2024/01/04 07:32:00;;;;;;;4.13;0.40;;;3.40;90.80;;;;;;5089209;28;20481;-77
2024/01/04 07:34:26;;;;;;;3.88;0.50;;;3.30;90.90;;;;;;5088888;28;20413;-78
2024/01/04 07:36:52;;;;;;;1.65;0.30;;;3.30;91.00;;;;;;5090469;28;20405;-78
2024/01/04 07:39:18;;;;;;;3.27;0.40;;;3.30;91.20;;;;;;5093206;28;20398;-78
2024/01/04 07:41:44;;;;;;;3.00;0.40;;;3.20;91.30;;;;;;5091236;28;20418;-77
2024/01/04 07:44:10;;;;;;;2.53;0.35;;;3.20;91.50;;;;;;5093055;28;20441;-77
2024/01/04 07:46:36;;;;;;;3.10;0.40;;;3.20;91.50;;;;;;5091586;28;20494;-77
2024/01/04 07:49:06;;;;;;;2.67;0.40;;;3.20;91.60;;;;;;5094159;28;20927;-78
2024/01/04 07:51:32;;;;;;;4.50;0.33;;;3.20;91.70;;;;;;5092376;28;20547;-78
2024/01/04 07:53:58;;;;;;;1.80;0.30;;;3.20;91.90;;;;;;5094158;28;20959;-79
2024/01/04 07:56:24;;;;;;;3.58;0.30;;;3.20;92.00;;;;;;5078455;28;20505;-78
2024/01/04 07:58:49;;;;;;;1.42;0.30;;;3.20;92.10;;;;;;5095720;28;20414;-78
2024/01/04 08:01:15;;;;;;;3.35;0.40;;;3.10;92.20;;;;;;5091656;28;20436;-79
2024/01/04 08:03:40;;;;;;;2.10;0.40;;;3.10;92.30;;;;;;5094213;28;20411;-78
2024/01/04 08:06:06;;;;;;;1.70;0.30;;;3.10;92.40;;;;;;5092060;28;20954;-78
2024/01/04 08:08:32;;;;;;;1.57;0.20;;;3.10;92.60;;;;;;5095407;28;20436;-78
2024/01/04 08:11:00;;;;;;;1.97;0.30;;;3.10;92.80;;;;;;5092697;28;20406;-78
2024/01/04 08:13:26;;;;;;;2.30;0.50;;;3.10;93.10;;;;;;5093058;28;20402;-78
2024/01/04 08:15:51;;;;;;;3.27;0.30;;;3.10;93.30;;;;;;5091743;28;20398;-78
2024/01/04 08:18:20;;;;;;;3.42;0.40;;;3.20;93.40;;;;;;5094138;28;20455;-78
2024/01/04 08:20:45;;;;;;;2.70;0.30;;;3.10;93.40;;;;;;5080621;28;20412;-79
2024/01/04 08:23:12;;;;;;;2.90;0.40;;;3.10;93.60;;;;;;5094605;28;20447;-78
2024/01/04 08:25:38;;;;;;;2.47;0.30;;;3.10;93.70;;;;;;5091092;28;20995;-78
2024/01/04 08:28:05;;;;;;;2.40;0.20;;;3.10;93.70;;;;;;5091486;28;20469;-78
2024/01/04 08:30:30;;;;;;;3.27;0.50;;;3.10;93.60;;;;;;5089382;28;20770;-78
2024/01/04 08:32:56;;;;;;;2.50;1.50;;;3.10;93.70;;;;;;5089950;28;20394;-78
2024/01/04 08:35:21;;;;;;;2.85;0.55;;;3.10;93.70;;;;;;5072236;28;20472;-78
2024/01/04 08:37:49;;;;;;;3.90;0.50;;;3.10;93.70;;;;;;5089635;28;20421;-78
2024/01/04 08:40:15;;;;;;;3.33;0.52;;;3.10;93.80;;;;;;5071327;28;20402;-77
2024/01/04 08:42:41;;;;;;;2.95;0.50;;;3.10;94.00;;;;;;5088783;28;20804;-78
2024/01/04 08:45:08;;;;;;;3.72;0.63;;;3.10;94.20;;;;;;5089642;28;20416;-78
2024/01/04 08:47:34;;;;;;;3.97;0.77;;;3.10;94.20;;;;;;5089995;28;20477;-78
2024/01/04 08:50:00;;;;;;;4.97;0.55;;;3.10;94.80;;;;;;5090328;28;20406;-78
2024/01/04 08:52:30;;;;;;;4.22;0.70;;;3.20;95.50;;;;;;5088589;28;20496;-79
2024/01/04 08:54:55;;;;;;;3.97;0.60;;;3.30;95.80;;;;;;5087662;28;20437;-78
2024/01/04 08:57:21;;;;;;;4.05;0.60;;;3.40;96.00;;;;;;5091739;28;20445;-78
2024/01/04 08:59:47;;;;;;;2.38;0.73;;;3.50;95.90;;;;;;5090187;28;20406;-78
2024/01/04 09:02:13;;;;;;;2.97;0.57;;;3.60;95.70;;;;;;5071950;28;20797;-78
2024/01/04 09:04:39;;;;;;;3.47;0.50;;;3.60;95.40;;;;;;5089004;28;20442;-77
2024/01/04 09:07:05;;;;;;;2.83;0.50;;;3.60;95.30;;;;;;5092214;28;20488;-78
2024/01/04 09:09:30;;;;;;;2.33;0.30;;;3.60;95.20;;;;;;5089537;28;20409;-78
2024/01/04 09:11:56;;;;;;;3.20;0.40;;;3.60;95.10;;;;;;5091632;28;20986;-78
2024/01/04 09:14:22;;;;;;;2.30;0.30;;;3.60;95.20;;;;;;5089837;28;20402;-78
2024/01/04 09:16:48;;;;;;;4.00;0.50;;;3.60;95.50;;;;;;5090410;28;20802;-78
2024/01/04 09:19:15;;;;;;;2.30;0.30;;;3.60;95.10;;;;;;5089115;28;20414;-78
2024/01/04 09:21:42;;;;;;;2.67;0.47;;;3.60;95.00;;;;;;5090465;28;20426;-78
2024/01/04 09:24:08;;;;;;;3.28;0.57;;;3.60;94.80;;;;;;5089540;28;20462;-78
2024/01/04 09:26:44;;;;;;;3.10;0.40;;;3.60;94.70;;;;;;5091513;28;20402;-78
2024/01/04 09:29:11;;;;;;;3.47;0.75;;;3.60;94.70;;;;;;5089805;28;20434;-78
2024/01/04 09:31:37;;;;;;;4.13;0.60;;;3.50;94.70;;;;;;5090751;28;20428;-78
2024/01/04 09:34:03;;;;;;;3.97;0.80;;;3.60;94.90;;;;;;5089389;28;20398;-78
2024/01/04 09:36:30;;;;;;;3.47;0.50;;;3.60;95.20;;;;;;5089247;28;20806;-78
2024/01/04 09:38:56;;;;;;;2.65;0.43;;;3.60;95.50;;;;;;5088653;28;20402;-78
2024/01/04 09:41:29;;;;;;;4.30;0.68;;;3.60;95.50;;;;;;5089368;28;20872;-78
2024/01/04 09:44:04;;;;;;;2.85;0.40;;;3.70;95.90;;;;;;5088265;28;20414;-79
2024/01/04 09:46:34;;;;;;;3.58;0.40;;;3.70;96.10;;;;;;5089013;28;20413;-78
2024/01/04 09:49:00;;;;;;;3.83;0.40;;;3.80;96.10;;;;;;5087411;28;20410;-78
2024/01/04 09:51:28;;;;;;;3.40;0.60;;;3.90;96.30;;;;;;5069972;28;20841;-78
2024/01/04 09:53:54;;;;;;;2.97;0.50;;;3.90;96.40;;;;;;5070573;28;20418;-78
2024/01/04 09:56:25;;;;;;;3.27;0.50;;;4.00;96.50;;;;;;5070160;28;20445;-78
2024/01/04 09:58:51;;;;;;;3.50;0.65;;;4.10;96.60;;;;;;5088884;28;20527;-78
2024/01/04 10:01:22;;;;;;;3.43;0.90;;;4.20;96.40;;;;;;5061351;28;20493;-78
2024/01/04 10:03:50;;;;;;;2.90;0.50;;;4.30;95.70;;;;;;5091593;28;20423;-79
2024/01/04 10:06:33;;;;;;;3.08;0.30;;;4.40;95.50;;;;;;5072249;28;20438;-78
2024/01/04 10:09:18;;;;;;;1.70;0.20;;;4.50;94.50;;;;;;5091468;28;20421;-78
2024/01/04 10:11:54;;;;;;;2.65;0.40;;;4.60;93.30;;;;;;5090956;28;20938;-78
2024/01/04 10:14:22;;;;;;;2.50;0.30;;;4.70;92.50;;;;;;5086468;28;21021;-78
2024/01/04 10:16:48;;;;;;;2.40;0.28;;;4.70;90.90;;;;;;5093122;28;20392;-79
2024/01/04 10:19:14;;;;;;;1.85;0.30;;;4.70;90.00;;;;;;5085965;28;20464;-78
2024/01/04 10:21:40;;;;;;;0.85;0.20;;;4.70;88.80;;;;;;5090094;28;20428;-78
2024/01/04 10:24:05;;;;;;;0.80;0.17;;;4.70;87.90;;;;;;5086403;28;20406;-78
2024/01/04 10:26:32;;;;;;;1.50;0.30;;;4.70;85.50;;;;;;5093045;28;20515;-78
2024/01/04 10:28:59;;;;;;;3.00;0.30;;;4.60;84.30;;;;;;5087853;28;20451;-78
2024/01/04 10:31:26;;;;;;;2.17;0.30;;;4.60;83.50;;;;;;5091136;28;20409;-78
2024/01/04 10:33:59;;;;;;;1.75;0.20;;;4.60;83.90;;;;;;5088921;28;20440;-78
2024/01/04 10:36:28;;;;;;;2.20;0.20;;;4.60;84.10;;;;;;5092504;28;20400;-78
2024/01/04 10:39:07;;;;;;;1.50;0.28;;;4.60;84.80;;;;;;5087802;28;20433;-78
2024/01/04 10:41:33;;;;;;;3.17;0.40;;;4.60;84.50;;;;;;5088718;28;20872;-78
2024/01/04 10:44:06;;;;;;;2.20;0.33;;;4.60;83.20;;;;;;5088360;28;20433;-78
2024/01/04 10:46:36;;;;;;;1.90;0.40;;;4.60;83.00;;;;;;5070950;28;20410;-78
2024/01/04 10:49:02;;;;;;;3.33;0.30;;;4.60;82.70;;;;;;5088552;28;20412;-78
2024/01/04 10:51:32;;;;;;;3.10;0.30;;;4.70;86.40;;;;;;5087908;28;20554;-78
2024/01/04 10:54:02;;;;;;;2.90;0.33;;;4.80;87.00;;;;;;5087754;28;20497;-78
2024/01/04 10:56:34;;;;;;;3.47;0.40;;;4.90;86.70;;;;;;5076930;28;20413;-78
2024/01/04 10:59:02;;;;;;;2.78;0.30;;;4.80;83.30;;;;;;5092370;28;20447;-78
2024/01/04 11:01:28;;;;;;;2.25;0.38;;;4.70;82.40;;;;;;5089243;28;20512;-78
2024/01/04 11:03:55;;;;;;;2.78;0.52;;;4.70;84.40;;;;;;5089509;28;20833;-78
2024/01/04 11:06:23;;;;;;;3.15;0.40;;;4.80;87.00;;;;;;5089196;28;20398;-78
2024/01/04 11:08:50;;;;;;;2.67;0.45;;;4.90;89.40;;;;;;5088956;28;20461;-78
2024/01/04 11:11:18;;;;;;;2.00;0.40;;;5.20;91.40;;;;;;5090055;28;20398;-78
2024/01/04 11:13:44;;;;;;;5.25;0.47;;;5.60;90.80;;;;;;5090960;28;20488;-78
2024/01/04 11:16:45;;;;;;;4.40;0.60;;;5.70;80.30;;;;;;5092671;28;20401;-78
2024/01/04 11:19:40;;;;;;;3.13;0.40;;;5.80;78.40;;;;;;5079825;28;20430;-78
2024/01/04 11:22:27;;;;;;;1.48;0.22;;;6.30;84.30;;;;;;5090472;28;20432;-78
2024/01/04 11:25:26;;;;;;;2.38;0.32;;;6.70;80.40;;;;;;5089707;28;20768;-78
2024/01/04 11:27:52;;;;;;;3.13;0.70;;;6.90;64.20;;;;;;5090941;28;20503;-78
2024/01/04 11:30:19;;;;;;;2.30;0.32;;;6.80;56.30;;;;;;5090546;28;20398;-78
2024/01/04 11:32:44;;;;;;;3.33;0.45;;;6.60;55.10;;;;;;5084523;28;20422;-78
2024/01/04 11:35:11;;;;;;;2.28;0.40;;;6.60;58.30;;;;;;5108016;28;20411;-78
2024/01/04 11:37:37;;;;;;;2.87;0.50;;;6.50;56.70;;;;;;5110620;28;20454;-78
2024/01/04 11:40:07;;;;;;;2.30;0.20;;;6.40;58.50;;;;;;5107940;28;20483;-78
2024/01/04 11:42:37;;;;;;;2.20;0.38;;;6.40;58.30;;;;;;5109665;28;20871;-78
2024/01/04 11:45:06;;;;;;;2.20;0.20;;;6.20;53.10;;;;;;5109094;28;20407;-78
2024/01/04 11:47:37;;;;;;;3.05;0.30;;;6.00;54.90;;;;;;5106890;28;20408;-78
2024/01/04 11:50:16;;;;;;;2.35;0.30;;;5.80;57.70;;;;;;5072249;28;20449;-78
2024/01/04 11:52:42;;;;;;;2.53;0.22;;;5.80;64.70;;;;;;5085863;28;20418;-79
2024/01/04 11:55:08;;;;;;;3.40;0.40;;;5.80;65.60;;;;;;5107173;28;20487;-78
2024/01/04 11:57:34;;;;;;;2.92;0.30;;;5.90;65.80;;;;;;5091996;28;20493;-78
2024/01/04 12:00:11;;;;;;;3.83;0.57;;;5.80;64.00;;;;;;5088986;28;20410;-78
2024/01/04 12:02:38;;;;;;;2.40;0.30;;;5.70;62.30;;;;;;5093182;28;20497;-78
2024/01/04 12:05:05;;;;;;;3.35;0.50;;;5.50;63.70;;;;;;5091541;28;20444;-78
2024/01/04 12:07:34;;;;;;;2.65;0.30;;;5.40;64.10;;;;;;5092448;28;20405;-79
2024/01/04 12:10:00;;;;;;;3.75;0.40;;;5.30;65.20;;;;;;5092208;28;20406;-77
2024/01/04 12:12:25;;;;;;;1.93;0.43;;;5.20;66.80;;;;;;5092202;28;20448;-78
2024/01/04 12:14:52;;;;;;;3.50;0.60;;;5.10;68.80;;;;;;5090218;28;20402;-78
2024/01/04 12:17:18;;;;;;;2.70;0.40;;;5.00;71.00;;;;;;5092194;28;20398;-78
2024/01/04 12:19:44;;;;;;;1.83;0.30;;;5.00;72.30;;;;;;5074266;28;20975;-78
2024/01/04 12:22:10;;;;;;;3.10;0.40;;;5.00;74.70;;;;;;5091487;28;20449;-78
2024/01/04 12:24:38;;;;;;;2.42;0.30;;;5.10;77.40;;;;;;5090765;28;20397;-78
2024/01/04 12:27:05;;;;;;;2.35;0.50;;;5.20;78.50;;;;;;5093162;28;20394;-78
2024/01/04 12:29:31;;;;;;;2.83;0.25;;;5.30;77.80;;;;;;5092199;28;20403;-78
2024/01/04 12:31:56;;;;;;;2.17;0.40;;;5.40;79.00;;;;;;5073431;28;20409;-79
2024/01/04 12:34:23;;;;;;;4.10;0.50;;;5.60;78.00;;;;;;5090117;28;20501;-78
2024/01/04 12:36:48;;;;;;;3.80;0.75;;;5.70;75.70;;;;;;5090760;28;20433;-79
2024/01/04 12:39:14;;;;;;;3.07;0.40;;;5.80;74.20;;;;;;5089541;28;20425;-79
2024/01/04 12:41:46;;;;;;;4.10;0.80;;;5.80;68.60;;;;;;5089746;28;20421;-78
2024/01/04 12:44:13;;;;;;;2.78;0.47;;;5.70;64.40;;;;;;5088765;28;20970;-78
2024/01/04 12:46:39;;;;;;;1.90;0.38;;;5.60;60.80;;;;;;5088009;28;20438;-78
2024/01/04 12:49:11;;;;;;;3.20;0.50;;;5.50;61.50;;;;;;5089712;28;20405;-78
2024/01/04 12:51:41;;;;;;;2.28;0.35;;;5.40;61.20;;;;;;5076763;28;20573;-78
2024/01/04 12:54:08;;;;;;;2.53;0.30;;;5.30;62.90;;;;;;5089170;28;20764;-78
2024/01/04 12:56:36;;;;;;;3.38;0.70;;;5.30;63.60;;;;;;5089213;28;20418;-78